sensor_id;sensor_type;location;lat;lon;timestamp;temperature;humidity
9810;DHT22;4944;52.514;13.192;2022-07-10T00:02:16;15.00;99.90
9810;DHT22;4944;52.514;13.192;2022-07-10T00:04:43;15.10;99.90
9810;DHT22;4944;52.514;13.192;2022-07-10T00:07:10;15.10;99.90
9810;DHT22;4944;52.514;13.192;2022-07-10T00:09:36;15.10;99.90
9810;DHT22;4944;52.514;13.192;2022-07-10T00:12:03;15.10;99.90
9810;DHT22;4944;52.514;13.192;2022-07-10T00:14:31;15.20;99.90
9810;DHT22;4944;52.514;13.192;2022-07-10T00:16:57;15.20;99.90
9810;DHT22;4944;52.514;13.192;2022-07-10T00:19:25;15.20;99.90
9810;DHT22;4944;52.514;13.192;2022-07-10T00:21:52;15.10;99.90
9810;DHT22;4944;52.514;13.192;2022-07-10T00:24:19;15.10;99.90
9810;DHT22;4944;52.514;13.192;2022-07-10T00:26:46;15.20;99.90
9810;DHT22;4944;52.514;13.192;2022-07-10T00:29:13;15.10;99.90
9810;DHT22;4944;52.514;13.192;2022-07-10T00:31:40;15.10;99.90
9810;DHT22;4944;52.514;13.192;2022-07-10T00:34:06;15.10;99.90
9810;DHT22;4944;52.514;13.192;2022-07-10T00:36:35;15.10;99.90
9810;DHT22;4944;52.514;13.192;2022-07-10T00:39:02;15.00;99.90
9810;DHT22;4944;52.514;13.192;2022-07-10T00:41:28;15.00;99.90
9810;DHT22;4944;52.514;13.192;2022-07-10T00:43:56;15.10;99.90
9810;DHT22;4944;52.514;13.192;2022-07-10T00:46:24;15.00;99.90
9810;DHT22;4944;52.514;13.192;2022-07-10T00:48:52;15.00;99.90
9810;DHT22;4944;52.514;13.192;2022-07-10T00:51:21;15.00;99.90
9810;DHT22;4944;52.514;13.192;2022-07-10T00:53:49;15.00;99.90
9810;DHT22;4944;52.514;13.192;2022-07-10T00:56:17;14.90;99.90
9810;DHT22;4944;52.514;13.192;2022-07-10T00:58:46;14.90;99.90
9810;DHT22;4944;52.514;13.192;2022-07-10T01:01:13;14.90;99.90
9810;DHT22;4944;52.514;13.192;2022-07-10T01:03:40;14.90;99.90
9810;DHT22;4944;52.514;13.192;2022-07-10T01:06:07;14.90;99.90
9810;DHT22;4944;52.514;13.192;2022-07-10T01:08:34;14.80;99.90
9810;DHT22;4944;52.514;13.192;2022-07-10T01:11:05;14.90;99.90
9810;DHT22;4944;52.514;13.192;2022-07-10T01:13:32;14.80;99.90
9810;DHT22;4944;52.514;13.192;2022-07-10T01:15:59;14.80;99.90
9810;DHT22;4944;52.514;13.192;2022-07-10T01:18:26;14.80;99.90
9810;DHT22;4944;52.514;13.192;2022-07-10T01:20:54;14.80;99.90
9810;DHT22;4944;52.514;13.192;2022-07-10T01:23:21;14.80;99.90
9810;DHT22;4944;52.514;13.192;2022-07-10T01:25:48;14.70;99.90
9810;DHT22;4944;52.514;13.192;2022-07-10T01:28:16;14.70;99.90
9810;DHT22;4944;52.514;13.192;2022-07-10T01:30:43;14.60;99.90
9810;DHT22;4944;52.514;13.192;2022-07-10T01:33:10;14.60;99.90
9810;DHT22;4944;52.514;13.192;2022-07-10T01:35:37;14.60;99.90
9810;DHT22;4944;52.514;13.192;2022-07-10T01:38:05;14.50;99.90
9810;DHT22;4944;52.514;13.192;2022-07-10T01:40:33;14.60;99.90
9810;DHT22;4944;52.514;13.192;2022-07-10T01:43:00;14.60;99.90
9810;DHT22;4944;52.514;13.192;2022-07-10T01:45:27;14.60;99.90
9810;DHT22;4944;52.514;13.192;2022-07-10T01:47:53;14.60;99.90
9810;DHT22;4944;52.514;13.192;2022-07-10T01:50:20;14.60;99.90
9810;DHT22;4944;52.514;13.192;2022-07-10T01:52:47;14.60;99.90
9810;DHT22;4944;52.514;13.192;2022-07-10T01:55:15;14.50;99.90
9810;DHT22;4944;52.514;13.192;2022-07-10T01:57:42;14.50;99.90
9810;DHT22;4944;52.514;13.192;2022-07-10T02:00:10;14.50;99.90
9810;DHT22;4944;52.514;13.192;2022-07-10T02:02:37;14.50;99.90
9810;DHT22;4944;52.514;13.192;2022-07-10T02:05:04;14.40;99.90
9810;DHT22;4944;52.514;13.192;2022-07-10T02:07:30;14.50;99.90
9810;DHT22;4944;52.514;13.192;2022-07-10T02:09:57;14.40;99.90
9810;DHT22;4944;52.514;13.192;2022-07-10T02:12:25;14.50;99.90
9810;DHT22;4944;52.514;13.192;2022-07-10T02:14:51;14.50;99.90
9810;DHT22;4944;52.514;13.192;2022-07-10T02:17:18;14.40;99.90
9810;DHT22;4944;52.514;13.192;2022-07-10T02:19:45;14.40;99.90
9810;DHT22;4944;52.514;13.192;2022-07-10T02:22:12;14.40;99.90
9810;DHT22;4944;52.514;13.192;2022-07-10T02:24:39;14.40;99.90
9810;DHT22;4944;52.514;13.192;2022-07-10T02:27:05;14.30;99.90
9810;DHT22;4944;52.514;13.192;2022-07-10T02:29:33;14.40;99.90
9810;DHT22;4944;52.514;13.192;2022-07-10T02:32:00;14.40;99.90
9810;DHT22;4944;52.514;13.192;2022-07-10T02:34:28;14.30;99.90
9810;DHT22;4944;52.514;13.192;2022-07-10T02:36:55;14.30;99.90
9810;DHT22;4944;52.514;13.192;2022-07-10T02:39:25;14.30;99.90
9810;DHT22;4944;52.514;13.192;2022-07-10T02:41:51;14.30;99.90
9810;DHT22;4944;52.514;13.192;2022-07-10T02:44:18;14.30;99.90
9810;DHT22;4944;52.514;13.192;2022-07-10T02:46:46;14.30;99.90
9810;DHT22;4944;52.514;13.192;2022-07-10T02:49:13;14.30;99.90
9810;DHT22;4944;52.514;13.192;2022-07-10T02:51:40;14.30;99.90
9810;DHT22;4944;52.514;13.192;2022-07-10T02:54:07;14.30;99.90
9810;DHT22;4944;52.514;13.192;2022-07-10T02:56:34;14.30;99.90
9810;DHT22;4944;52.514;13.192;2022-07-10T02:59:02;14.30;99.90
9810;DHT22;4944;52.514;13.192;2022-07-10T03:01:28;14.20;99.90
9810;DHT22;4944;52.514;13.192;2022-07-10T03:03:56;14.20;99.90
9810;DHT22;4944;52.514;13.192;2022-07-10T03:06:23;14.20;99.90
9810;DHT22;4944;52.514;13.192;2022-07-10T03:08:50;14.20;99.90
9810;DHT22;4944;52.514;13.192;2022-07-10T03:11:17;14.20;99.90
9810;DHT22;4944;52.514;13.192;2022-07-10T03:13:43;14.10;99.90
9810;DHT22;4944;52.514;13.192;2022-07-10T03:16:10;14.10;99.90
9810;DHT22;4944;52.514;13.192;2022-07-10T03:18:37;14.10;99.90
9810;DHT22;4944;52.514;13.192;2022-07-10T03:21:08;14.10;99.90
9810;DHT22;4944;52.514;13.192;2022-07-10T03:23:35;14.10;99.90
9810;DHT22;4944;52.514;13.192;2022-07-10T03:26:02;14.10;99.90
9810;DHT22;4944;52.514;13.192;2022-07-10T03:28:33;14.10;99.90
9810;DHT22;4944;52.514;13.192;2022-07-10T03:31:01;14.10;99.90
9810;DHT22;4944;52.514;13.192;2022-07-10T03:33:30;14.10;99.90
9810;DHT22;4944;52.514;13.192;2022-07-10T03:35:57;14.10;99.90
9810;DHT22;4944;52.514;13.192;2022-07-10T03:38:25;14.00;99.90
9810;DHT22;4944;52.514;13.192;2022-07-10T03:40:52;14.00;99.90
9810;DHT22;4944;52.514;13.192;2022-07-10T03:43:19;14.00;99.90
9810;DHT22;4944;52.514;13.192;2022-07-10T03:45:45;13.90;99.90
9810;DHT22;4944;52.514;13.192;2022-07-10T03:48:12;13.90;99.90
9810;DHT22;4944;52.514;13.192;2022-07-10T03:50:39;13.90;99.90
9810;DHT22;4944;52.514;13.192;2022-07-10T03:53:06;13.90;99.90
9810;DHT22;4944;52.514;13.192;2022-07-10T03:55:34;13.90;99.90
9810;DHT22;4944;52.514;13.192;2022-07-10T03:58:01;13.90;99.90
9810;DHT22;4944;52.514;13.192;2022-07-10T04:00:29;13.90;99.90
9810;DHT22;4944;52.514;13.192;2022-07-10T04:02:58;13.90;99.90
9810;DHT22;4944;52.514;13.192;2022-07-10T04:05:26;13.90;99.90
9810;DHT22;4944;52.514;13.192;2022-07-10T04:07:53;13.90;99.90
9810;DHT22;4944;52.514;13.192;2022-07-10T04:10:22;14.00;99.90
9810;DHT22;4944;52.514;13.192;2022-07-10T04:12:51;13.90;99.90
9810;DHT22;4944;52.514;13.192;2022-07-10T04:15:18;14.00;99.90
9810;DHT22;4944;52.514;13.192;2022-07-10T04:17:45;14.00;99.90
9810;DHT22;4944;52.514;13.192;2022-07-10T04:20:12;14.00;99.90
9810;DHT22;4944;52.514;13.192;2022-07-10T04:22:39;14.00;99.90
9810;DHT22;4944;52.514;13.192;2022-07-10T04:25:06;14.00;99.90
9810;DHT22;4944;52.514;13.192;2022-07-10T04:27:33;14.10;99.90
9810;DHT22;4944;52.514;13.192;2022-07-10T04:30:02;14.10;99.90
9810;DHT22;4944;52.514;13.192;2022-07-10T04:32:29;14.00;99.90
9810;DHT22;4944;52.514;13.192;2022-07-10T04:34:57;14.10;99.90
9810;DHT22;4944;52.514;13.192;2022-07-10T04:37:24;14.10;99.90
9810;DHT22;4944;52.514;13.192;2022-07-10T04:39:51;14.10;99.90
9810;DHT22;4944;52.514;13.192;2022-07-10T04:42:17;14.00;99.90
9810;DHT22;4944;52.514;13.192;2022-07-10T04:44:44;14.10;99.90
9810;DHT22;4944;52.514;13.192;2022-07-10T04:47:12;14.00;99.90
9810;DHT22;4944;52.514;13.192;2022-07-10T04:49:39;14.00;99.90
9810;DHT22;4944;52.514;13.192;2022-07-10T04:52:06;14.10;99.90
9810;DHT22;4944;52.514;13.192;2022-07-10T04:54:33;14.10;99.90
9810;DHT22;4944;52.514;13.192;2022-07-10T04:57:00;14.20;99.90
9810;DHT22;4944;52.514;13.192;2022-07-10T04:59:27;14.20;99.90
9810;DHT22;4944;52.514;13.192;2022-07-10T05:01:53;14.20;99.90
9810;DHT22;4944;52.514;13.192;2022-07-10T05:04:21;14.20;99.90
9810;DHT22;4944;52.514;13.192;2022-07-10T05:06:48;14.20;99.90
9810;DHT22;4944;52.514;13.192;2022-07-10T05:09:15;14.20;99.90
9810;DHT22;4944;52.514;13.192;2022-07-10T05:11:45;14.20;99.90
9810;DHT22;4944;52.514;13.192;2022-07-10T05:14:12;14.30;99.90
9810;DHT22;4944;52.514;13.192;2022-07-10T05:16:38;14.20;99.90
9810;DHT22;4944;52.514;13.192;2022-07-10T05:19:05;14.20;99.90
9810;DHT22;4944;52.514;13.192;2022-07-10T05:21:33;14.20;99.90
9810;DHT22;4944;52.514;13.192;2022-07-10T05:24:00;14.20;99.90
9810;DHT22;4944;52.514;13.192;2022-07-10T05:26:27;14.20;99.90
9810;DHT22;4944;52.514;13.192;2022-07-10T05:28:53;14.20;99.90
9810;DHT22;4944;52.514;13.192;2022-07-10T05:31:20;14.10;99.90
9810;DHT22;4944;52.514;13.192;2022-07-10T05:33:47;14.10;99.90
9810;DHT22;4944;52.514;13.192;2022-07-10T05:36:14;14.20;99.90
9810;DHT22;4944;52.514;13.192;2022-07-10T05:38:42;14.30;99.90
9810;DHT22;4944;52.514;13.192;2022-07-10T05:41:09;14.40;99.90
9810;DHT22;4944;52.514;13.192;2022-07-10T05:43:36;14.40;99.90
9810;DHT22;4944;52.514;13.192;2022-07-10T05:46:05;14.40;99.90
9810;DHT22;4944;52.514;13.192;2022-07-10T05:48:32;14.50;99.90
9810;DHT22;4944;52.514;13.192;2022-07-10T05:50:59;14.60;99.90
9810;DHT22;4944;52.514;13.192;2022-07-10T05:53:26;14.60;99.90
9810;DHT22;4944;52.514;13.192;2022-07-10T05:55:54;14.60;99.90
9810;DHT22;4944;52.514;13.192;2022-07-10T05:58:21;14.60;99.90
9810;DHT22;4944;52.514;13.192;2022-07-10T06:00:47;14.60;99.90
9810;DHT22;4944;52.514;13.192;2022-07-10T06:03:16;14.50;99.90
9810;DHT22;4944;52.514;13.192;2022-07-10T06:05:42;14.50;99.90
9810;DHT22;4944;52.514;13.192;2022-07-10T06:08:11;14.60;99.90
9810;DHT22;4944;52.514;13.192;2022-07-10T06:10:38;14.60;99.90
9810;DHT22;4944;52.514;13.192;2022-07-10T06:13:07;14.60;99.90
9810;DHT22;4944;52.514;13.192;2022-07-10T06:15:34;14.60;99.90
9810;DHT22;4944;52.514;13.192;2022-07-10T06:18:00;14.70;99.90
9810;DHT22;4944;52.514;13.192;2022-07-10T06:20:27;14.70;99.90
9810;DHT22;4944;52.514;13.192;2022-07-10T06:22:54;14.80;99.90
9810;DHT22;4944;52.514;13.192;2022-07-10T06:25:21;14.90;99.90
9810;DHT22;4944;52.514;13.192;2022-07-10T06:27:48;14.90;99.90
9810;DHT22;4944;52.514;13.192;2022-07-10T06:30:16;14.90;99.90
9810;DHT22;4944;52.514;13.192;2022-07-10T06:32:43;14.90;99.90
9810;DHT22;4944;52.514;13.192;2022-07-10T06:35:10;15.00;99.90
9810;DHT22;4944;52.514;13.192;2022-07-10T06:37:37;15.00;99.90
9810;DHT22;4944;52.514;13.192;2022-07-10T06:40:05;15.10;99.90
9810;DHT22;4944;52.514;13.192;2022-07-10T06:42:32;15.10;99.90
9810;DHT22;4944;52.514;13.192;2022-07-10T06:44:59;15.10;99.90
9810;DHT22;4944;52.514;13.192;2022-07-10T06:47:27;15.10;99.90
9810;DHT22;4944;52.514;13.192;2022-07-10T06:50:11;15.10;99.90
9810;DHT22;4944;52.514;13.192;2022-07-10T06:52:39;15.10;99.90
9810;DHT22;4944;52.514;13.192;2022-07-10T06:55:06;15.10;99.90
9810;DHT22;4944;52.514;13.192;2022-07-10T06:57:33;15.10;99.90
9810;DHT22;4944;52.514;13.192;2022-07-10T06:59:59;15.00;99.90
9810;DHT22;4944;52.514;13.192;2022-07-10T07:02:28;14.90;99.90
9810;DHT22;4944;52.514;13.192;2022-07-10T07:04:54;14.80;99.90
9810;DHT22;4944;52.514;13.192;2022-07-10T07:07:21;15.00;99.90
9810;DHT22;4944;52.514;13.192;2022-07-10T07:09:48;15.10;99.90
9810;DHT22;4944;52.514;13.192;2022-07-10T07:12:16;15.20;99.90
9810;DHT22;4944;52.514;13.192;2022-07-10T07:14:43;15.30;99.90
9810;DHT22;4944;52.514;13.192;2022-07-10T07:17:10;15.40;99.90
9810;DHT22;4944;52.514;13.192;2022-07-10T07:19:40;15.60;99.90
9810;DHT22;4944;52.514;13.192;2022-07-10T07:22:25;15.70;99.90
9810;DHT22;4944;52.514;13.192;2022-07-10T07:25:10;15.60;99.90
9810;DHT22;4944;52.514;13.192;2022-07-10T07:27:38;15.70;99.90
9810;DHT22;4944;52.514;13.192;2022-07-10T07:30:07;15.70;99.90
9810;DHT22;4944;52.514;13.192;2022-07-10T07:32:36;15.80;99.90
9810;DHT22;4944;52.514;13.192;2022-07-10T07:35:05;16.00;99.90
9810;DHT22;4944;52.514;13.192;2022-07-10T07:37:37;16.10;99.90
9810;DHT22;4944;52.514;13.192;2022-07-10T07:40:05;16.30;99.90
9810;DHT22;4944;52.514;13.192;2022-07-10T07:42:32;16.40;99.90
9810;DHT22;4944;52.514;13.192;2022-07-10T07:44:59;16.40;99.90
9810;DHT22;4944;52.514;13.192;2022-07-10T07:47:26;16.40;99.90
9810;DHT22;4944;52.514;13.192;2022-07-10T07:49:53;16.40;99.90
9810;DHT22;4944;52.514;13.192;2022-07-10T07:52:21;16.30;99.90
9810;DHT22;4944;52.514;13.192;2022-07-10T07:54:48;16.10;99.90
9810;DHT22;4944;52.514;13.192;2022-07-10T07:57:16;16.00;99.90
9810;DHT22;4944;52.514;13.192;2022-07-10T07:59:43;16.00;99.90
9810;DHT22;4944;52.514;13.192;2022-07-10T08:02:10;16.00;99.90
9810;DHT22;4944;52.514;13.192;2022-07-10T08:04:36;16.10;99.90
9810;DHT22;4944;52.514;13.192;2022-07-10T08:07:03;16.10;99.90
9810;DHT22;4944;52.514;13.192;2022-07-10T08:09:32;16.10;99.90
9810;DHT22;4944;52.514;13.192;2022-07-10T08:11:58;16.10;99.90
9810;DHT22;4944;52.514;13.192;2022-07-10T08:14:25;16.10;99.90
9810;DHT22;4944;52.514;13.192;2022-07-10T08:16:52;16.20;99.90
9810;DHT22;4944;52.514;13.192;2022-07-10T08:19:19;16.30;99.90
9810;DHT22;4944;52.514;13.192;2022-07-10T08:21:45;16.20;99.90
9810;DHT22;4944;52.514;13.192;2022-07-10T08:24:12;16.30;99.90
9810;DHT22;4944;52.514;13.192;2022-07-10T08:26:41;16.30;99.90
9810;DHT22;4944;52.514;13.192;2022-07-10T08:29:08;16.30;99.90
9810;DHT22;4944;52.514;13.192;2022-07-10T08:31:35;16.30;99.90
9810;DHT22;4944;52.514;13.192;2022-07-10T08:34:02;16.30;99.90
9810;DHT22;4944;52.514;13.192;2022-07-10T08:36:29;16.10;99.90
9810;DHT22;4944;52.514;13.192;2022-07-10T08:38:56;16.10;99.90
9810;DHT22;4944;52.514;13.192;2022-07-10T08:41:25;16.10;99.90
9810;DHT22;4944;52.514;13.192;2022-07-10T08:43:54;16.20;99.90
9810;DHT22;4944;52.514;13.192;2022-07-10T08:46:21;16.20;99.90
9810;DHT22;4944;52.514;13.192;2022-07-10T08:48:51;16.20;99.90
9810;DHT22;4944;52.514;13.192;2022-07-10T08:51:24;16.20;99.90
9810;DHT22;4944;52.514;13.192;2022-07-10T08:53:57;16.30;99.90
9810;DHT22;4944;52.514;13.192;2022-07-10T08:56:24;16.30;99.90
9810;DHT22;4944;52.514;13.192;2022-07-10T08:58:53;16.40;99.90
9810;DHT22;4944;52.514;13.192;2022-07-10T09:01:20;16.40;99.90
9810;DHT22;4944;52.514;13.192;2022-07-10T09:03:48;16.50;99.90
9810;DHT22;4944;52.514;13.192;2022-07-10T09:06:16;16.50;99.90
9810;DHT22;4944;52.514;13.192;2022-07-10T09:08:58;16.60;99.90
9810;DHT22;4944;52.514;13.192;2022-07-10T09:11:25;16.70;99.90
9810;DHT22;4944;52.514;13.192;2022-07-10T09:13:57;16.80;99.90
9810;DHT22;4944;52.514;13.192;2022-07-10T09:16:24;16.90;99.90
9810;DHT22;4944;52.514;13.192;2022-07-10T09:18:52;17.00;99.90
9810;DHT22;4944;52.514;13.192;2022-07-10T09:21:19;17.10;99.90
9810;DHT22;4944;52.514;13.192;2022-07-10T09:23:46;17.10;99.90
9810;DHT22;4944;52.514;13.192;2022-07-10T09:26:13;17.10;99.90
9810;DHT22;4944;52.514;13.192;2022-07-10T09:28:40;16.90;99.90
9810;DHT22;4944;52.514;13.192;2022-07-10T09:31:09;16.80;99.90
9810;DHT22;4944;52.514;13.192;2022-07-10T09:33:35;16.90;99.90
9810;DHT22;4944;52.514;13.192;2022-07-10T09:36:06;16.80;99.90
9810;DHT22;4944;52.514;13.192;2022-07-10T09:39:04;16.90;99.90
9810;DHT22;4944;52.514;13.192;2022-07-10T09:41:32;17.10;99.90
9810;DHT22;4944;52.514;13.192;2022-07-10T09:44:00;17.20;99.90
9810;DHT22;4944;52.514;13.192;2022-07-10T09:46:31;17.20;99.90
9810;DHT22;4944;52.514;13.192;2022-07-10T09:49:03;17.30;99.90
9810;DHT22;4944;52.514;13.192;2022-07-10T09:51:31;17.40;99.90
9810;DHT22;4944;52.514;13.192;2022-07-10T09:54:01;17.40;99.90
9810;DHT22;4944;52.514;13.192;2022-07-10T09:56:32;17.50;99.90
9810;DHT22;4944;52.514;13.192;2022-07-10T09:59:00;17.50;99.90
9810;DHT22;4944;52.514;13.192;2022-07-10T10:01:29;17.60;99.90
9810;DHT22;4944;52.514;13.192;2022-07-10T10:03:58;17.60;99.90
9810;DHT22;4944;52.514;13.192;2022-07-10T10:06:30;17.60;99.90
9810;DHT22;4944;52.514;13.192;2022-07-10T10:09:03;17.60;99.90
9810;DHT22;4944;52.514;13.192;2022-07-10T10:11:32;17.50;99.90
9810;DHT22;4944;52.514;13.192;2022-07-10T10:14:01;17.50;99.90
9810;DHT22;4944;52.514;13.192;2022-07-10T10:16:30;17.50;99.90
9810;DHT22;4944;52.514;13.192;2022-07-10T10:18:59;17.60;99.90
9810;DHT22;4944;52.514;13.192;2022-07-10T10:21:43;17.70;99.90
9810;DHT22;4944;52.514;13.192;2022-07-10T10:24:11;17.90;99.90
9810;DHT22;4944;52.514;13.192;2022-07-10T10:26:39;18.10;99.90
9810;DHT22;4944;52.514;13.192;2022-07-10T10:29:06;18.30;99.90
9810;DHT22;4944;52.514;13.192;2022-07-10T10:31:35;18.20;99.90
9810;DHT22;4944;52.514;13.192;2022-07-10T10:34:03;18.20;99.90
9810;DHT22;4944;52.514;13.192;2022-07-10T10:36:46;18.20;99.90
9810;DHT22;4944;52.514;13.192;2022-07-10T10:39:15;18.00;99.90
9810;DHT22;4944;52.514;13.192;2022-07-10T10:41:46;18.00;99.90
9810;DHT22;4944;52.514;13.192;2022-07-10T10:44:24;18.00;99.90
9810;DHT22;4944;52.514;13.192;2022-07-10T10:47:03;17.90;99.90
9810;DHT22;4944;52.514;13.192;2022-07-10T10:50:03;17.90;99.90
9810;DHT22;4944;52.514;13.192;2022-07-10T10:52:30;17.90;99.90
9810;DHT22;4944;52.514;13.192;2022-07-10T10:55:06;17.90;99.90
9810;DHT22;4944;52.514;13.192;2022-07-10T10:57:41;18.10;99.90
9810;DHT22;4944;52.514;13.192;2022-07-10T11:00:31;18.30;99.90
9810;DHT22;4944;52.514;13.192;2022-07-10T11:03:28;18.40;99.90
9810;DHT22;4944;52.514;13.192;2022-07-10T11:05:55;18.70;99.90
9810;DHT22;4944;52.514;13.192;2022-07-10T11:08:39;18.80;99.90
9810;DHT22;4944;52.514;13.192;2022-07-10T11:14:08;18.50;99.90
9810;DHT22;4944;52.514;13.192;2022-07-10T11:16:35;18.40;99.90
9810;DHT22;4944;52.514;13.192;2022-07-10T11:19:03;18.40;99.90
9810;DHT22;4944;52.514;13.192;2022-07-10T11:21:39;18.30;99.90
9810;DHT22;4944;52.514;13.192;2022-07-10T11:24:21;18.20;99.90
9810;DHT22;4944;52.514;13.192;2022-07-10T11:26:58;18.10;99.90
9810;DHT22;4944;52.514;13.192;2022-07-10T11:29:35;18.00;99.90
9810;DHT22;4944;52.514;13.192;2022-07-10T11:32:03;18.10;99.90
9810;DHT22;4944;52.514;13.192;2022-07-10T11:34:35;18.10;99.90
9810;DHT22;4944;52.514;13.192;2022-07-10T11:37:02;18.20;99.90
9810;DHT22;4944;52.514;13.192;2022-07-10T11:39:29;18.40;99.90
9810;DHT22;4944;52.514;13.192;2022-07-10T11:41:56;18.60;99.90
9810;DHT22;4944;52.514;13.192;2022-07-10T11:44:23;18.70;99.90
9810;DHT22;4944;52.514;13.192;2022-07-10T11:46:49;18.70;99.90
9810;DHT22;4944;52.514;13.192;2022-07-10T11:49:20;18.70;99.90
9810;DHT22;4944;52.514;13.192;2022-07-10T11:51:48;18.60;99.90
9810;DHT22;4944;52.514;13.192;2022-07-10T11:54:17;18.60;99.90
9810;DHT22;4944;52.514;13.192;2022-07-10T11:56:47;18.40;99.90
9810;DHT22;4944;52.514;13.192;2022-07-10T11:59:15;18.40;99.90
9810;DHT22;4944;52.514;13.192;2022-07-10T12:01:43;18.40;99.90
9810;DHT22;4944;52.514;13.192;2022-07-10T12:04:11;18.50;99.90
9810;DHT22;4944;52.514;13.192;2022-07-10T12:06:40;18.60;99.90
9810;DHT22;4944;52.514;13.192;2022-07-10T12:09:10;18.60;99.90
9810;DHT22;4944;52.514;13.192;2022-07-10T12:11:37;18.80;99.90
9810;DHT22;4944;52.514;13.192;2022-07-10T12:14:12;18.90;99.90
9810;DHT22;4944;52.514;13.192;2022-07-10T12:16:40;19.00;99.90
9810;DHT22;4944;52.514;13.192;2022-07-10T12:19:08;18.90;99.90
9810;DHT22;4944;52.514;13.192;2022-07-10T12:21:36;19.00;99.90
9810;DHT22;4944;52.514;13.192;2022-07-10T12:24:04;19.10;99.90
9810;DHT22;4944;52.514;13.192;2022-07-10T12:26:33;19.10;99.90
9810;DHT22;4944;52.514;13.192;2022-07-10T12:29:01;19.00;99.90
9810;DHT22;4944;52.514;13.192;2022-07-10T12:31:30;18.80;99.90
9810;DHT22;4944;52.514;13.192;2022-07-10T12:33:59;18.70;99.90
9810;DHT22;4944;52.514;13.192;2022-07-10T12:36:44;18.60;99.90
9810;DHT22;4944;52.514;13.192;2022-07-10T12:39:12;18.70;99.90
9810;DHT22;4944;52.514;13.192;2022-07-10T12:41:57;18.70;99.90
9810;DHT22;4944;52.514;13.192;2022-07-10T12:44:35;18.70;99.90
9810;DHT22;4944;52.514;13.192;2022-07-10T12:47:03;18.70;99.90
9810;DHT22;4944;52.514;13.192;2022-07-10T12:49:51;18.70;99.90
9810;DHT22;4944;52.514;13.192;2022-07-10T12:52:22;18.80;99.90
9810;DHT22;4944;52.514;13.192;2022-07-10T12:55:05;19.00;99.90
9810;DHT22;4944;52.514;13.192;2022-07-10T12:57:45;19.20;99.90
9810;DHT22;4944;52.514;13.192;2022-07-10T13:00:13;19.30;99.90
9810;DHT22;4944;52.514;13.192;2022-07-10T13:02:40;19.40;99.90
9810;DHT22;4944;52.514;13.192;2022-07-10T13:05:07;19.50;99.90
9810;DHT22;4944;52.514;13.192;2022-07-10T13:07:35;19.60;99.70
9810;DHT22;4944;52.514;13.192;2022-07-10T13:10:04;19.60;99.40
9810;DHT22;4944;52.514;13.192;2022-07-10T13:12:33;19.50;99.40
9810;DHT22;4944;52.514;13.192;2022-07-10T13:15:00;19.40;99.90
9810;DHT22;4944;52.514;13.192;2022-07-10T13:17:27;19.50;99.90
9810;DHT22;4944;52.514;13.192;2022-07-10T13:19:54;19.60;99.90
9810;DHT22;4944;52.514;13.192;2022-07-10T13:22:21;19.70;99.90
9810;DHT22;4944;52.514;13.192;2022-07-10T13:24:48;19.80;99.40
9810;DHT22;4944;52.514;13.192;2022-07-10T13:27:15;20.00;99.80
9810;DHT22;4944;52.514;13.192;2022-07-10T13:29:43;19.90;98.70
9810;DHT22;4944;52.514;13.192;2022-07-10T13:32:10;20.00;98.50
9810;DHT22;4944;52.514;13.192;2022-07-10T13:34:37;19.90;98.30
9810;DHT22;4944;52.514;13.192;2022-07-10T13:37:04;19.80;98.30
9810;DHT22;4944;52.514;13.192;2022-07-10T13:39:31;19.70;98.60
9810;DHT22;4944;52.514;13.192;2022-07-10T13:41:58;19.70;98.60
9810;DHT22;4944;52.514;13.192;2022-07-10T13:44:25;20.00;98.80
9810;DHT22;4944;52.514;13.192;2022-07-10T13:46:53;20.50;99.10
9810;DHT22;4944;52.514;13.192;2022-07-10T13:49:20;21.10;98.40
9810;DHT22;4944;52.514;13.192;2022-07-10T13:51:47;21.30;97.00
9810;DHT22;4944;52.514;13.192;2022-07-10T13:54:15;21.50;96.80
9810;DHT22;4944;52.514;13.192;2022-07-10T13:56:41;21.60;97.20
9810;DHT22;4944;52.514;13.192;2022-07-10T13:59:09;21.60;97.60
9810;DHT22;4944;52.514;13.192;2022-07-10T14:01:35;21.60;97.30
9810;DHT22;4944;52.514;13.192;2022-07-10T14:04:04;21.50;96.60
9810;DHT22;4944;52.514;13.192;2022-07-10T14:06:30;21.40;97.00
9810;DHT22;4944;52.514;13.192;2022-07-10T14:08:58;21.60;96.60
9810;DHT22;4944;52.514;13.192;2022-07-10T14:11:25;21.80;96.30
9810;DHT22;4944;52.514;13.192;2022-07-10T14:13:52;22.10;95.50
9810;DHT22;4944;52.514;13.192;2022-07-10T14:16:19;22.40;95.80
9810;DHT22;4944;52.514;13.192;2022-07-10T14:18:46;22.80;95.60
9810;DHT22;4944;52.514;13.192;2022-07-10T14:21:14;23.20;94.80
9810;DHT22;4944;52.514;13.192;2022-07-10T14:23:42;23.30;94.40
9810;DHT22;4944;52.514;13.192;2022-07-10T14:26:12;23.40;94.50
9810;DHT22;4944;52.514;13.192;2022-07-10T14:28:39;23.20;94.20
9810;DHT22;4944;52.514;13.192;2022-07-10T14:31:07;23.10;94.50
9810;DHT22;4944;52.514;13.192;2022-07-10T14:33:35;23.20;94.60
9810;DHT22;4944;52.514;13.192;2022-07-10T14:36:04;23.40;94.40
9810;DHT22;4944;52.514;13.192;2022-07-10T14:38:33;23.40;93.90
9810;DHT22;4944;52.514;13.192;2022-07-10T14:41:00;23.40;93.60
9810;DHT22;4944;52.514;13.192;2022-07-10T14:43:27;23.70;94.10
9810;DHT22;4944;52.514;13.192;2022-07-10T14:45:54;23.80;93.00
9810;DHT22;4944;52.514;13.192;2022-07-10T14:48:21;24.00;93.10
9810;DHT22;4944;52.514;13.192;2022-07-10T14:50:49;24.00;91.90
9810;DHT22;4944;52.514;13.192;2022-07-10T14:53:16;23.90;91.70
9810;DHT22;4944;52.514;13.192;2022-07-10T14:55:44;23.70;91.60
9810;DHT22;4944;52.514;13.192;2022-07-10T14:58:11;23.20;92.00
9810;DHT22;4944;52.514;13.192;2022-07-10T15:00:38;22.60;93.10
9810;DHT22;4944;52.514;13.192;2022-07-10T15:03:04;22.50;93.60
9810;DHT22;4944;52.514;13.192;2022-07-10T15:05:31;22.40;93.90
9810;DHT22;4944;52.514;13.192;2022-07-10T15:07:59;22.40;94.30
9810;DHT22;4944;52.514;13.192;2022-07-10T15:10:26;22.30;94.20
9810;DHT22;4944;52.514;13.192;2022-07-10T15:12:55;22.20;95.00
9810;DHT22;4944;52.514;13.192;2022-07-10T15:15:21;22.10;93.60
9810;DHT22;4944;52.514;13.192;2022-07-10T15:17:48;21.90;93.50
9810;DHT22;4944;52.514;13.192;2022-07-10T15:20:15;21.70;94.10
9810;DHT22;4944;52.514;13.192;2022-07-10T15:22:44;21.60;94.10
9810;DHT22;4944;52.514;13.192;2022-07-10T15:25:11;21.40;94.20
9810;DHT22;4944;52.514;13.192;2022-07-10T15:27:38;21.20;94.30
9810;DHT22;4944;52.514;13.192;2022-07-10T15:30:10;21.10;94.80
9810;DHT22;4944;52.514;13.192;2022-07-10T15:32:37;21.10;94.70
9810;DHT22;4944;52.514;13.192;2022-07-10T15:35:05;21.20;94.90
9810;DHT22;4944;52.514;13.192;2022-07-10T15:37:32;21.40;94.70
9810;DHT22;4944;52.514;13.192;2022-07-10T15:39:59;21.80;94.60
9810;DHT22;4944;52.514;13.192;2022-07-10T15:42:26;22.20;93.70
9810;DHT22;4944;52.514;13.192;2022-07-10T15:44:53;22.30;93.50
9810;DHT22;4944;52.514;13.192;2022-07-10T15:47:21;22.00;93.40
9810;DHT22;4944;52.514;13.192;2022-07-10T15:49:48;21.80;93.90
9810;DHT22;4944;52.514;13.192;2022-07-10T15:52:15;21.70;94.60
9810;DHT22;4944;52.514;13.192;2022-07-10T15:54:42;21.60;94.70
9810;DHT22;4944;52.514;13.192;2022-07-10T15:57:09;21.80;94.70